createdAt,value
2018-05-15T00:00:00.823Z,17.00
2018-05-15T00:01:01.932Z,17.00
2018-05-15T00:02:03.746Z,17.00
2018-05-15T00:03:04.827Z,17.00
2018-05-15T00:04:05.902Z,17.00
2018-05-15T00:05:06.978Z,17.10
2018-05-15T00:06:08.786Z,17.00
2018-05-15T00:07:09.861Z,17.00
2018-05-15T00:08:11.676Z,17.00
2018-05-15T00:09:12.751Z,17.00
2018-05-15T00:10:13.863Z,17.00
2018-05-15T00:11:15.675Z,17.00
2018-05-15T00:12:16.758Z,17.00
2018-05-15T00:13:17.836Z,17.00
2018-05-15T00:14:18.895Z,17.00
2018-05-15T00:15:19.988Z,17.00
2018-05-15T00:16:21.041Z,17.00
2018-05-15T00:17:22.108Z,17.00
2018-05-15T00:18:23.899Z,17.00
2018-05-15T00:19:25.039Z,17.00
2018-05-15T00:20:26.072Z,17.00
2018-05-15T00:21:27.874Z,17.00
2018-05-15T00:22:29.703Z,16.90
2018-05-15T00:23:30.774Z,17.00
2018-05-15T00:24:32.579Z,16.90
2018-05-15T00:25:33.647Z,16.90
2018-05-15T00:26:34.712Z,16.90
2018-05-15T00:27:35.772Z,16.90
2018-05-15T00:28:36.831Z,16.90
2018-05-15T00:29:37.899Z,16.90
2018-05-15T00:30:38.978Z,16.90
2018-05-15T00:31:40.057Z,16.80
2018-05-15T00:32:41.136Z,16.80
2018-05-15T00:33:42.228Z,16.80
2018-05-15T00:34:43.291Z,16.70
2018-05-15T00:35:44.387Z,16.70
2018-05-15T00:36:45.446Z,16.70
2018-05-15T00:37:47.251Z,16.70
2018-05-15T00:38:48.325Z,16.70
2018-05-15T00:39:49.421Z,16.70
2018-05-15T00:40:50.529Z,16.60
2018-05-15T00:41:51.595Z,16.70
2018-05-15T00:42:52.667Z,16.70
2018-05-15T00:43:53.742Z,16.60
2018-05-15T00:44:55.547Z,16.60
2018-05-15T00:45:56.626Z,16.60
2018-05-15T00:46:58.439Z,16.60
2018-05-15T00:47:59.498Z,16.60
2018-05-15T00:49:01.302Z,16.60
2018-05-15T00:50:02.488Z,16.50
2018-05-15T00:51:03.486Z,16.50
2018-05-15T00:52:04.599Z,16.50
2018-05-15T00:53:05.670Z,16.50
2018-05-15T00:54:07.485Z,16.50
2018-05-15T00:55:20.887Z,16.50
2018-05-15T00:56:22.675Z,16.50
2018-05-15T00:57:23.746Z,16.50
2018-05-15T00:58:24.834Z,16.60
2018-05-15T00:59:25.901Z,16.60
2018-05-15T01:00:26.978Z,16.60
2018-05-15T01:01:28.051Z,16.60
2018-05-15T01:02:29.863Z,16.60
2018-05-15T01:03:30.919Z,16.60
2018-05-15T01:04:31.978Z,16.60
2018-05-15T01:05:33.040Z,16.60
2018-05-15T01:06:34.127Z,16.60
2018-05-15T01:07:35.951Z,16.60
2018-05-15T01:08:37.023Z,16.50
2018-05-15T01:09:38.092Z,16.60
2018-05-15T01:10:39.160Z,16.60
2018-05-15T01:11:41.025Z,16.60
2018-05-15T01:12:42.108Z,16.60
2018-05-15T01:13:43.193Z,16.60
2018-05-15T01:14:44.992Z,16.50
2018-05-15T01:15:46.059Z,16.60
2018-05-15T01:16:47.135Z,16.50
2018-05-15T01:17:48.193Z,16.50
2018-05-15T01:18:49.271Z,16.40
2018-05-15T01:19:50.347Z,16.40
2018-05-15T01:20:51.416Z,16.40
2018-05-15T01:21:53.232Z,16.40
2018-05-15T01:22:54.316Z,16.40
2018-05-15T01:23:56.120Z,16.40
2018-05-15T01:24:57.193Z,16.40
2018-05-15T01:25:58.980Z,16.40
2018-05-15T01:27:00.047Z,16.30
2018-05-15T01:28:01.111Z,16.40
2018-05-15T01:29:02.926Z,16.40
2018-05-15T01:30:04.011Z,16.40
2018-05-15T01:31:05.077Z,16.40
2018-05-15T01:32:06.165Z,16.40
2018-05-15T01:33:07.970Z,16.40
2018-05-15T01:34:09.042Z,16.40
2018-05-15T01:35:10.125Z,16.40
2018-05-15T01:36:11.211Z,16.40
2018-05-15T01:37:13.087Z,16.40
2018-05-15T01:38:14.166Z,16.40
2018-05-15T01:39:15.262Z,16.30
2018-05-15T01:40:16.332Z,16.40
2018-05-15T01:41:17.397Z,16.40
2018-05-15T01:42:18.504Z,16.40
2018-05-15T01:43:19.551Z,16.40
2018-05-15T01:44:20.627Z,16.40
2018-05-15T01:45:21.703Z,16.40
2018-05-15T01:46:23.519Z,16.30
2018-05-15T01:47:24.591Z,16.30
2018-05-15T01:48:25.670Z,16.30
2018-05-15T01:49:26.750Z,16.30
2018-05-15T01:50:27.811Z,16.20
2018-05-15T01:51:28.867Z,16.20
2018-05-15T01:52:29.999Z,16.20
2018-05-15T01:53:31.067Z,16.20
2018-05-15T01:54:32.142Z,16.20
2018-05-15T01:55:33.196Z,16.20
2018-05-15T01:56:34.264Z,16.20
2018-05-15T01:57:35.361Z,16.30
2018-05-15T01:58:36.424Z,16.20
2018-05-15T01:59:37.508Z,16.20
2018-05-15T02:00:38.571Z,16.20
2018-05-15T02:01:39.634Z,16.20
2018-05-15T02:02:40.731Z,16.20
2018-05-15T02:03:41.793Z,16.20
2018-05-15T02:04:43.604Z,16.10
2018-05-15T02:05:44.673Z,16.10
2018-05-15T02:06:46.490Z,16.20
2018-05-15T02:07:47.552Z,16.20
2018-05-15T02:08:49.367Z,16.20
2018-05-15T02:09:50.427Z,16.20
2018-05-15T02:10:51.527Z,16.10
2018-05-15T02:11:52.600Z,16.10
2018-05-15T02:12:53.663Z,16.10
2018-05-15T02:13:54.723Z,16.10
2018-05-15T02:14:55.775Z,16.10
2018-05-15T02:15:56.874Z,16.10
2018-05-15T02:16:57.963Z,16.10
2018-05-15T02:17:59.039Z,16.10
2018-05-15T02:19:00.120Z,16.10
2018-05-15T02:20:01.180Z,16.10
2018-05-15T02:21:02.279Z,16.10
2018-05-15T02:22:03.359Z,16.10
2018-05-15T02:23:04.423Z,16.10
2018-05-15T02:24:05.504Z,16.10
2018-05-15T02:25:06.588Z,16.20
2018-05-15T02:26:07.642Z,16.20
2018-05-15T02:27:08.719Z,16.20
2018-05-15T02:28:09.790Z,16.20
2018-05-15T02:29:10.867Z,16.20
2018-05-15T02:30:11.947Z,16.20
2018-05-15T02:31:12.999Z,16.20
2018-05-15T02:32:14.093Z,16.20
2018-05-15T02:33:15.160Z,16.30
2018-05-15T02:34:16.235Z,16.30
2018-05-15T02:35:17.298Z,16.30
2018-05-15T02:36:18.363Z,16.30
2018-05-15T02:37:20.198Z,16.30
2018-05-15T02:38:21.245Z,16.30
2018-05-15T02:39:22.323Z,16.30
2018-05-15T02:40:23.372Z,16.40
2018-05-15T02:41:24.439Z,16.40
2018-05-15T02:42:25.536Z,16.40
2018-05-15T02:43:26.588Z,16.40
2018-05-15T02:44:27.666Z,16.40
2018-05-15T02:45:28.732Z,16.40
2018-05-15T02:46:29.784Z,16.40
2018-05-15T02:47:30.847Z,16.40
2018-05-15T02:48:32.644Z,16.50
2018-05-15T02:49:33.707Z,16.40
2018-05-15T02:50:34.791Z,16.40
2018-05-15T02:51:35.908Z,16.50
2018-05-15T02:52:36.991Z,16.50
2018-05-15T02:53:38.073Z,16.40
2018-05-15T02:54:39.143Z,16.50
2018-05-15T02:55:40.229Z,16.50
2018-05-15T02:56:41.306Z,16.50
2018-05-15T02:57:42.403Z,16.50
2018-05-15T02:58:43.470Z,16.50
2018-05-15T02:59:44.541Z,16.50
2018-05-15T03:00:45.590Z,16.50
2018-05-15T03:01:47.380Z,16.50
2018-05-15T03:02:48.445Z,16.50
2018-05-15T03:03:49.511Z,16.40
2018-05-15T03:04:50.581Z,16.40
2018-05-15T03:05:51.640Z,16.40
2018-05-15T03:06:52.690Z,16.40
2018-05-15T03:07:54.507Z,16.40
2018-05-15T03:08:55.579Z,16.40
2018-05-15T03:09:56.651Z,16.50
2018-05-15T03:10:57.732Z,16.40
2018-05-15T03:11:58.816Z,16.40
2018-05-15T03:12:59.893Z,16.40
2018-05-15T03:14:01.718Z,16.40
2018-05-15T03:15:02.810Z,16.40
2018-05-15T03:16:03.875Z,16.40
2018-05-15T03:17:04.964Z,16.40
2018-05-15T03:18:06.020Z,16.40
2018-05-15T03:19:07.100Z,16.40
2018-05-15T03:20:08.191Z,16.50
2018-05-15T03:21:09.251Z,16.50
2018-05-15T03:22:10.331Z,16.50
2018-05-15T03:23:11.405Z,16.50
2018-05-15T03:24:12.476Z,16.50
2018-05-15T03:25:14.285Z,16.50
2018-05-15T03:26:15.347Z,16.50
2018-05-15T03:27:16.434Z,16.50
2018-05-15T03:28:17.522Z,16.50
2018-05-15T03:29:18.627Z,16.40
2018-05-15T03:30:19.691Z,16.50
2018-05-15T03:31:20.805Z,16.40
2018-05-15T03:32:22.612Z,16.50
2018-05-15T03:33:23.705Z,16.40
2018-05-15T03:34:25.498Z,16.40
2018-05-15T03:35:26.562Z,16.40
2018-05-15T03:36:28.376Z,16.40
2018-05-15T03:37:29.437Z,16.40
2018-05-15T03:38:30.494Z,16.40
2018-05-15T03:39:31.591Z,16.50
2018-05-15T03:40:32.675Z,16.40
2018-05-15T03:41:33.735Z,16.40
2018-05-15T03:42:34.838Z,16.40
2018-05-15T03:43:35.901Z,16.40
2018-05-15T03:44:36.965Z,16.40
2018-05-15T03:45:38.027Z,16.40
2018-05-15T03:46:39.826Z,16.40
2018-05-15T03:47:40.891Z,16.30
2018-05-15T03:48:41.953Z,16.40
2018-05-15T03:49:43.006Z,16.40
2018-05-15T03:50:44.069Z,16.40
2018-05-15T03:51:45.139Z,16.40
2018-05-15T03:52:46.219Z,16.40
2018-05-15T03:53:47.303Z,16.40
2018-05-15T03:54:48.387Z,16.30
2018-05-15T03:55:49.479Z,16.40
2018-05-15T03:56:50.562Z,16.40
2018-05-15T03:57:51.627Z,16.40
2018-05-15T03:58:52.712Z,16.40
2018-05-15T03:59:54.583Z,16.40
2018-05-15T04:01:08.035Z,16.40
2018-05-15T04:02:21.503Z,16.40
2018-05-15T04:03:34.775Z,16.40
2018-05-15T04:04:48.127Z,16.40
2018-05-15T04:06:01.511Z,16.40
2018-05-15T04:07:14.843Z,16.40
2018-05-15T04:08:15.974Z,16.40
2018-05-15T04:09:17.061Z,16.40
2018-05-15T04:10:18.191Z,16.40
2018-05-15T04:11:19.355Z,16.20
2018-05-15T04:12:21.171Z,16.30
2018-05-15T04:13:22.238Z,16.30
2018-05-15T04:14:23.304Z,16.30
2018-05-15T04:15:24.367Z,16.40
2018-05-15T04:16:25.447Z,16.40
2018-05-15T04:17:26.530Z,16.40
2018-05-15T04:18:27.615Z,16.40
2018-05-15T04:19:28.659Z,16.40
2018-05-15T04:20:29.752Z,16.40
2018-05-15T04:21:30.815Z,16.40
2018-05-15T04:22:31.899Z,16.40
2018-05-15T04:23:32.975Z,16.40
2018-05-15T04:24:34.028Z,16.40
2018-05-15T04:25:35.119Z,16.40
2018-05-15T04:26:36.166Z,16.40
2018-05-15T04:27:37.239Z,16.50
2018-05-15T04:28:38.322Z,16.50
2018-05-15T04:29:40.128Z,16.50
2018-05-15T04:30:41.179Z,16.40
2018-05-15T04:31:42.271Z,16.50
2018-05-15T04:32:43.337Z,16.50
2018-05-15T04:33:44.399Z,16.50
2018-05-15T04:34:46.220Z,16.50
2018-05-15T04:35:47.291Z,16.50
2018-05-15T04:36:48.357Z,16.50
2018-05-15T04:37:49.466Z,16.50
2018-05-15T04:38:50.539Z,16.60
2018-05-15T04:39:51.591Z,16.50
2018-05-15T04:40:52.659Z,16.50
2018-05-15T04:41:53.729Z,16.50
2018-05-15T04:42:54.803Z,16.50
2018-05-15T04:43:55.944Z,16.40
2018-05-15T04:44:56.971Z,16.40
2018-05-15T04:45:58.045Z,16.50
2018-05-15T04:46:59.130Z,16.40
2018-05-15T04:48:00.935Z,16.40
2018-05-15T04:49:02.011Z,16.40
2018-05-15T04:50:03.820Z,16.40
2018-05-15T04:51:04.904Z,16.40
2018-05-15T04:52:05.960Z,16.40
2018-05-15T04:53:07.746Z,16.40
2018-05-15T04:54:08.815Z,16.40
2018-05-15T04:55:09.886Z,16.40
2018-05-15T04:56:10.961Z,16.40
2018-05-15T04:57:12.038Z,16.40
2018-05-15T04:58:13.147Z,16.40
2018-05-15T04:59:14.958Z,16.40
2018-05-15T05:00:15.996Z,16.40
2018-05-15T05:01:17.076Z,16.40
2018-05-15T05:02:18.174Z,16.40
2018-05-15T05:03:19.277Z,16.40
2018-05-15T05:04:20.378Z,16.40
2018-05-15T05:05:21.426Z,16.40
2018-05-15T05:06:22.483Z,16.40
2018-05-15T05:07:23.541Z,16.40
2018-05-15T05:08:24.619Z,16.40
2018-05-15T05:09:25.707Z,16.40
2018-05-15T05:10:26.802Z,16.50
2018-05-15T05:11:28.030Z,16.50
2018-05-15T05:12:29.110Z,16.40
2018-05-15T05:13:30.180Z,16.50
2018-05-15T05:14:31.251Z,16.50
2018-05-15T05:15:32.351Z,16.50
2018-05-15T05:16:33.444Z,16.50
2018-05-15T05:17:35.239Z,16.60
2018-05-15T05:18:36.303Z,16.50
2018-05-15T05:19:37.384Z,16.60
2018-05-15T05:20:38.450Z,16.70
2018-05-15T05:21:39.572Z,16.70
2018-05-15T05:22:41.452Z,16.60
2018-05-15T05:23:42.528Z,16.60
2018-05-15T05:24:43.594Z,16.60
2018-05-15T05:25:44.663Z,16.60
2018-05-15T05:26:46.523Z,16.50
2018-05-15T05:27:47.571Z,16.70
2018-05-15T05:28:48.744Z,16.50
2018-05-15T05:29:49.847Z,16.50
2018-05-15T05:30:50.914Z,16.50
2018-05-15T05:31:52.920Z,16.50
2018-05-15T05:32:54.003Z,16.60
2018-05-15T05:33:55.191Z,16.60
2018-05-15T05:34:56.991Z,16.60
2018-05-15T05:35:58.064Z,16.60
2018-05-15T05:36:59.131Z,16.60
2018-05-15T05:38:00.182Z,16.70
2018-05-15T05:39:01.251Z,16.60
2018-05-15T05:40:02.438Z,16.60
2018-05-15T05:41:03.412Z,16.60
2018-05-15T05:42:05.229Z,16.60
2018-05-15T05:43:06.295Z,16.60
2018-05-15T05:44:07.385Z,16.60
2018-05-15T05:45:08.458Z,16.70
2018-05-15T05:46:09.550Z,16.70
2018-05-15T05:47:10.615Z,16.70
2018-05-15T05:48:12.405Z,16.70
2018-05-15T05:49:13.495Z,16.70
2018-05-15T05:50:15.298Z,16.80
2018-05-15T05:51:16.354Z,16.80
2018-05-15T05:52:17.405Z,16.80
2018-05-15T05:53:19.206Z,16.80
2018-05-15T05:54:20.263Z,16.80
2018-05-15T05:55:21.365Z,16.80
2018-05-15T05:56:22.498Z,16.80
2018-05-15T05:57:23.614Z,16.80
2018-05-15T05:58:24.725Z,16.80
2018-05-15T05:59:25.847Z,16.80
2018-05-15T06:00:26.968Z,16.80
2018-05-15T06:01:28.022Z,16.80
2018-05-15T06:02:29.825Z,16.80
2018-05-15T06:03:30.892Z,16.90
2018-05-15T06:04:32.711Z,16.90
2018-05-15T06:05:33.779Z,16.90
2018-05-15T06:06:35.628Z,16.80
2018-05-15T06:07:37.459Z,16.80
2018-05-15T06:08:38.540Z,16.80
2018-05-15T06:09:39.599Z,16.80
2018-05-15T06:10:40.731Z,16.70
2018-05-15T06:11:41.826Z,16.80
2018-05-15T06:12:42.903Z,16.90
2018-05-15T06:13:44.758Z,16.80
2018-05-15T06:14:45.847Z,16.80
2018-05-15T06:15:46.939Z,16.80
2018-05-15T06:16:47.993Z,16.80
2018-05-15T06:17:49.075Z,16.90
2018-05-15T06:18:50.147Z,16.90
2018-05-15T06:19:51.987Z,16.90
2018-05-15T06:20:53.121Z,16.90
2018-05-15T06:21:54.180Z,16.80
2018-05-15T06:22:55.260Z,16.80
2018-05-15T06:23:56.335Z,16.80
2018-05-15T06:24:57.443Z,16.80
2018-05-15T06:25:59.282Z,16.80
2018-05-15T06:27:00.350Z,16.70
2018-05-15T06:28:01.407Z,16.80
2018-05-15T06:29:02.459Z,16.80
2018-05-15T06:30:03.536Z,16.80
2018-05-15T06:31:05.335Z,16.80
2018-05-15T06:32:06.410Z,16.80
2018-05-15T06:33:07.463Z,16.80
2018-05-15T06:34:08.550Z,16.80
2018-05-15T06:35:09.633Z,16.80
2018-05-15T06:36:10.720Z,16.80
2018-05-15T06:37:11.779Z,16.80
2018-05-15T06:38:12.858Z,16.80
2018-05-15T06:39:13.924Z,16.80
2018-05-15T06:40:15.047Z,16.80
2018-05-15T06:41:16.122Z,16.90
2018-05-15T06:42:17.190Z,16.90
2018-05-15T06:43:18.271Z,16.90
2018-05-15T06:44:20.086Z,16.80
2018-05-15T06:45:21.196Z,16.80
2018-05-15T06:46:22.270Z,16.90
2018-05-15T06:47:24.086Z,16.80
2018-05-15T06:48:25.142Z,16.80
2018-05-15T06:49:26.260Z,16.80
2018-05-15T06:50:27.346Z,16.80
2018-05-15T06:51:29.183Z,16.80
2018-05-15T06:52:30.974Z,16.80
2018-05-15T06:53:32.043Z,16.80
2018-05-15T06:54:33.131Z,16.80
2018-05-15T06:55:34.186Z,16.70
2018-05-15T06:56:35.266Z,16.80
2018-05-15T06:57:36.342Z,16.80
2018-05-15T06:58:37.417Z,16.80
2018-05-15T06:59:38.498Z,16.80
2018-05-15T07:00:39.653Z,16.70
2018-05-15T07:01:40.731Z,16.50
2018-05-15T07:02:41.803Z,16.60
2018-05-15T07:03:42.881Z,16.50
2018-05-15T07:04:44.694Z,16.50
2018-05-15T07:05:45.779Z,16.50
2018-05-15T07:06:46.880Z,16.50
2018-05-15T07:07:47.958Z,16.70
2018-05-15T07:08:49.016Z,16.60
2018-05-15T07:09:50.087Z,16.60
2018-05-15T07:10:51.175Z,16.60
2018-05-15T07:11:52.257Z,16.60
2018-05-15T07:12:53.320Z,16.60
2018-05-15T07:13:54.428Z,16.60
2018-05-15T07:14:55.500Z,16.60
2018-05-15T07:15:56.566Z,16.60
2018-05-15T07:16:57.634Z,16.60
2018-05-15T07:17:59.455Z,16.70
2018-05-15T07:19:00.528Z,16.60
2018-05-15T07:20:01.595Z,16.70
2018-05-15T07:21:02.659Z,16.70
2018-05-15T07:22:04.458Z,16.70
2018-05-15T07:23:05.514Z,16.80
2018-05-15T07:24:06.596Z,16.80
2018-05-15T07:25:07.660Z,16.80
2018-05-15T07:26:08.742Z,16.80
2018-05-15T07:27:09.848Z,16.80
2018-05-15T07:28:10.910Z,16.80
2018-05-15T07:29:11.987Z,17.00
2018-05-15T07:30:13.051Z,16.90
2018-05-15T07:31:14.122Z,16.90
2018-05-15T07:32:15.174Z,16.90
2018-05-15T07:33:16.299Z,17.10
2018-05-15T07:34:17.353Z,16.90
2018-05-15T07:35:18.418Z,16.90
2018-05-15T07:36:19.479Z,16.90
2018-05-15T07:37:20.595Z,17.00
2018-05-15T07:38:21.642Z,17.00
2018-05-15T07:39:22.728Z,17.00
2018-05-15T07:40:23.783Z,17.00
2018-05-15T07:41:24.860Z,17.00
2018-05-15T07:42:26.685Z,17.10
2018-05-15T07:43:28.491Z,17.10
2018-05-15T07:44:29.558Z,17.00
2018-05-15T07:45:31.371Z,17.10
2018-05-15T07:46:32.460Z,17.10
2018-05-15T07:47:33.541Z,17.20
2018-05-15T07:48:34.598Z,17.20
2018-05-15T07:49:35.660Z,17.30
2018-05-15T07:50:36.727Z,17.30
2018-05-15T07:51:37.799Z,17.30
2018-05-15T07:52:39.627Z,17.40
2018-05-15T07:53:40.753Z,17.40
2018-05-15T07:54:41.758Z,17.50
2018-05-15T07:55:42.821Z,17.50
2018-05-15T07:56:43.906Z,17.50
2018-05-15T07:57:45.059Z,17.60
2018-05-15T07:58:46.125Z,17.70
2018-05-15T07:59:47.176Z,17.70
2018-05-15T08:00:48.974Z,17.70
2018-05-15T08:01:50.045Z,17.70
2018-05-15T08:02:51.851Z,17.70
2018-05-15T08:03:52.909Z,17.70
2018-05-15T08:04:53.990Z,17.70
2018-05-15T08:05:55.042Z,17.80
2018-05-15T08:06:56.106Z,17.80
2018-05-15T08:07:57.238Z,17.90
2018-05-15T08:08:58.292Z,17.90
2018-05-15T08:10:00.099Z,18.00
2018-05-15T08:11:01.152Z,17.90
2018-05-15T08:12:02.219Z,18.10
2018-05-15T08:13:04.039Z,18.10
2018-05-15T08:14:05.104Z,18.10
2018-05-15T08:15:06.925Z,18.00
2018-05-15T08:16:07.975Z,18.00
2018-05-15T08:17:09.795Z,17.90
2018-05-15T08:18:10.850Z,17.90
2018-05-15T08:19:12.646Z,17.90
2018-05-15T08:20:13.719Z,17.90
2018-05-15T08:21:14.796Z,17.90
2018-05-15T08:22:15.920Z,17.90
2018-05-15T08:23:16.979Z,18.00
2018-05-15T08:24:18.048Z,17.90
2018-05-15T08:25:19.203Z,18.00
2018-05-15T08:26:20.215Z,18.10
2018-05-15T08:27:21.331Z,18.10
2018-05-15T08:28:22.390Z,18.20
2018-05-15T08:29:24.268Z,18.30
2018-05-15T08:30:25.323Z,18.30
2018-05-15T08:31:26.404Z,18.40
2018-05-15T08:32:28.207Z,18.50
2018-05-15T08:33:29.280Z,18.50
2018-05-15T08:34:31.089Z,18.60
2018-05-15T08:35:32.158Z,18.60
2018-05-15T08:36:33.207Z,18.50
2018-05-15T08:37:35.212Z,18.50
2018-05-15T08:38:36.127Z,18.50
2018-05-15T08:39:37.186Z,18.60
2018-05-15T08:40:38.257Z,18.60
2018-05-15T08:41:39.316Z,18.60
2018-05-15T08:42:40.374Z,18.60
2018-05-15T08:43:41.437Z,18.70
2018-05-15T08:44:43.246Z,18.70
2018-05-15T08:45:44.307Z,18.70
2018-05-15T08:46:45.406Z,18.70
2018-05-15T08:47:46.465Z,18.70
2018-05-15T08:48:47.621Z,18.80
2018-05-15T08:49:48.715Z,18.80
2018-05-15T08:50:49.783Z,18.90
2018-05-15T08:51:51.598Z,19.00
2018-05-15T08:52:52.662Z,19.00
2018-05-15T08:53:53.736Z,19.00
2018-05-15T08:54:54.816Z,19.00
2018-05-15T08:55:56.636Z,19.00
2018-05-15T08:56:57.748Z,19.00
2018-05-15T08:57:58.801Z,19.00
2018-05-15T08:58:59.870Z,19.10
2018-05-15T09:00:00.928Z,19.10
2018-05-15T09:01:01.988Z,19.10
2018-05-15T09:02:03.067Z,19.20
2018-05-15T09:03:04.868Z,19.20
2018-05-15T09:04:05.966Z,19.20
2018-05-15T09:06:14.832Z,19.20
2018-05-15T09:07:15.885Z,19.30
2018-05-15T09:08:16.950Z,19.30
2018-05-15T09:09:18.019Z,19.30
2018-05-15T09:10:19.083Z,19.40
2018-05-15T09:11:20.124Z,19.40
2018-05-15T09:12:21.182Z,19.40
2018-05-15T09:13:22.247Z,19.50
2018-05-15T09:14:23.359Z,19.40
2018-05-15T09:15:24.419Z,19.40
2018-05-15T09:16:25.494Z,19.40
2018-05-15T09:17:26.562Z,19.50
2018-05-15T09:18:27.619Z,19.40
2018-05-15T09:19:28.711Z,19.50
2018-05-15T09:20:29.775Z,19.40
2018-05-15T09:21:30.850Z,19.50
2018-05-15T09:22:31.930Z,19.50
2018-05-15T09:23:32.996Z,19.60
2018-05-15T09:24:34.092Z,19.60
2018-05-15T09:25:35.147Z,19.60
2018-05-15T09:26:36.206Z,19.60
2018-05-15T09:27:37.266Z,19.60
2018-05-15T09:28:38.322Z,19.60
2018-05-15T09:29:40.123Z,19.80
2018-05-15T09:30:41.920Z,19.80
2018-05-15T09:31:43.015Z,19.80
2018-05-15T09:32:44.086Z,19.90
2018-05-15T09:33:45.168Z,19.90
2018-05-15T09:34:46.997Z,20.00
2018-05-15T09:35:48.825Z,20.00
2018-05-15T09:36:49.892Z,20.00
2018-05-15T09:37:50.961Z,20.00
2018-05-15T09:38:52.778Z,20.10
2018-05-15T09:39:54.612Z,20.10
2018-05-15T09:40:55.671Z,20.10
2018-05-15T09:41:57.484Z,20.10
2018-05-15T09:42:58.542Z,20.10
2018-05-15T09:43:59.647Z,20.10
2018-05-15T09:45:00.705Z,20.20
2018-05-15T09:46:01.791Z,20.10
2018-05-15T09:47:02.883Z,20.10
2018-05-15T09:48:03.947Z,20.10
2018-05-15T09:49:05.002Z,20.20
2018-05-15T09:50:06.089Z,20.30
2018-05-15T09:51:07.159Z,20.40
2018-05-15T09:52:08.238Z,20.40
2018-05-15T09:53:09.319Z,20.50
2018-05-15T09:54:10.395Z,20.50
2018-05-15T09:55:12.202Z,20.50
2018-05-15T09:56:13.280Z,20.50
2018-05-15T09:57:14.428Z,20.50
2018-05-15T09:58:15.508Z,20.50
2018-05-15T09:59:16.588Z,20.40
2018-05-15T10:00:23.787Z,20.50
2018-05-15T10:01:24.860Z,20.50
2018-05-15T10:02:25.912Z,20.50
2018-05-15T10:03:28.554Z,20.50
2018-05-15T10:04:29.871Z,20.50
2018-05-15T10:05:30.952Z,20.50
2018-05-15T10:06:32.748Z,20.50
2018-05-15T10:07:33.905Z,20.50
2018-05-15T10:08:34.910Z,20.40
2018-05-15T10:09:35.963Z,20.40
2018-05-15T10:10:37.039Z,20.40
2018-05-15T10:11:38.111Z,20.40
2018-05-15T10:12:39.179Z,20.40
2018-05-15T10:13:40.249Z,20.30
2018-05-15T10:14:41.791Z,20.30
2018-05-15T10:15:42.983Z,20.40
2018-05-15T10:16:44.039Z,20.50
2018-05-15T10:17:45.851Z,20.60
2018-05-15T10:18:46.895Z,20.60
2018-05-15T10:19:48.007Z,20.70
2018-05-15T10:20:49.071Z,20.70
2018-05-15T10:21:50.111Z,20.70
2018-05-15T10:22:51.184Z,20.70
2018-05-15T10:23:52.235Z,20.70
2018-05-15T10:24:53.321Z,20.70
2018-05-15T10:25:55.115Z,20.60
2018-05-15T10:26:56.163Z,20.60
2018-05-15T10:27:57.223Z,20.60
2018-05-15T10:28:59.010Z,20.60
2018-05-15T10:30:00.103Z,20.60
2018-05-15T10:31:01.183Z,20.60
2018-05-15T10:32:02.276Z,20.70
2018-05-15T10:33:04.087Z,20.80
2018-05-15T10:34:05.160Z,20.90
2018-05-15T10:35:06.232Z,20.90
2018-05-15T10:36:07.291Z,21.00
2018-05-15T10:37:08.371Z,21.10
2018-05-15T10:38:09.426Z,21.10
2018-05-15T10:39:10.580Z,21.10
2018-05-15T10:40:11.646Z,21.10
2018-05-15T10:41:13.459Z,21.10
2018-05-15T10:42:14.503Z,21.10
2018-05-15T10:43:15.583Z,21.10
2018-05-15T10:44:16.640Z,21.20
2018-05-15T10:45:17.707Z,21.10
2018-05-15T10:46:19.507Z,21.30
2018-05-15T10:47:20.548Z,21.30
2018-05-15T10:48:21.606Z,21.40
2018-05-15T10:49:22.715Z,21.50
2018-05-15T10:50:23.802Z,21.60
2018-05-15T10:51:25.602Z,21.60
2018-05-15T10:52:26.673Z,21.60
2018-05-15T10:53:27.751Z,21.70
2018-05-15T10:54:28.803Z,21.70
2018-05-15T10:55:29.870Z,21.90
2018-05-15T10:56:30.948Z,21.90
2018-05-15T10:57:32.016Z,21.90
2018-05-15T10:58:33.848Z,21.80
2018-05-15T10:59:34.913Z,21.80
2018-05-15T11:00:35.974Z,21.90
2018-05-15T11:01:37.051Z,21.90
2018-05-15T11:02:38.111Z,21.90
2018-05-15T11:03:39.178Z,21.90
2018-05-15T11:04:40.234Z,21.90
2018-05-15T11:05:41.315Z,21.90
2018-05-15T11:06:43.120Z,21.90
2018-05-15T11:07:44.191Z,21.90
2018-05-15T11:08:45.248Z,21.90
2018-05-15T11:09:46.311Z,21.80
2018-05-15T11:10:47.385Z,21.90
2018-05-15T11:11:49.194Z,22.00
2018-05-15T11:12:50.329Z,21.90
2018-05-15T11:13:52.090Z,22.00
2018-05-15T11:14:53.159Z,22.10
2018-05-15T11:15:54.459Z,22.10
2018-05-15T11:16:55.514Z,22.10
2018-05-15T11:17:56.615Z,22.10
2018-05-15T11:19:10.004Z,22.00
2018-05-15T11:20:23.951Z,21.80
2018-05-15T11:21:37.462Z,21.80
2018-05-15T11:22:51.682Z,21.80
2018-05-15T11:24:17.844Z,21.70
2018-05-15T11:25:18.947Z,21.70
2018-05-15T11:26:20.019Z,21.70
2018-05-15T11:27:21.110Z,21.70
2018-05-15T11:28:22.171Z,21.70
2018-05-15T11:29:23.251Z,21.70
2018-05-15T11:30:24.329Z,21.80
2018-05-15T11:31:25.407Z,22.00
2018-05-15T11:32:26.496Z,22.00
2018-05-15T11:33:27.560Z,22.20
2018-05-15T11:34:28.674Z,22.20
2018-05-15T11:35:29.740Z,22.20
2018-05-15T11:36:30.806Z,22.30
2018-05-15T11:37:31.901Z,22.30
2018-05-15T11:38:32.991Z,22.40
2018-05-15T11:39:34.072Z,22.40
2018-05-15T11:40:35.145Z,22.40
2018-05-15T11:41:36.250Z,22.40
2018-05-15T11:42:37.283Z,22.30
2018-05-15T11:43:39.096Z,22.30
2018-05-15T11:44:40.135Z,22.20
2018-05-15T11:45:41.455Z,22.20
2018-05-15T11:46:42.554Z,22.20
2018-05-15T11:47:43.762Z,22.20
2018-05-15T11:48:45.716Z,22.10
2018-05-15T11:49:47.429Z,22.10
2018-05-15T11:50:48.814Z,22.00
2018-05-15T11:51:49.893Z,22.00
2018-05-15T11:52:51.821Z,21.90
2018-05-15T11:53:52.126Z,21.90
2018-05-15T11:54:53.099Z,21.80
2018-05-15T11:55:54.231Z,21.80
2018-05-15T11:56:55.279Z,21.80
2018-05-15T11:57:57.082Z,21.80
2018-05-15T11:58:58.142Z,21.80
2018-05-15T11:59:59.308Z,21.80
2018-05-15T12:01:00.305Z,21.80
2018-05-15T12:02:01.367Z,21.70
2018-05-15T12:03:02.471Z,21.70
2018-05-15T12:04:03.558Z,21.70
2018-05-15T12:05:04.625Z,21.70
2018-05-15T12:06:05.706Z,21.70
2018-05-15T12:07:07.517Z,21.90
2018-05-15T12:08:08.649Z,22.00
2018-05-15T12:09:09.858Z,22.00
2018-05-15T12:10:10.859Z,22.20
2018-05-15T12:11:11.927Z,22.30
2018-05-15T12:12:12.987Z,22.40
2018-05-15T12:13:14.070Z,22.40
2018-05-15T12:14:15.172Z,22.40
2018-05-15T12:15:16.970Z,22.50
2018-05-15T12:16:18.030Z,22.40
2018-05-15T12:17:19.080Z,22.60
2018-05-15T12:18:20.133Z,22.70
2018-05-15T12:19:21.206Z,22.70
2018-05-15T12:20:22.274Z,22.70
2018-05-15T12:21:23.326Z,22.70
2018-05-15T12:22:24.371Z,22.70
2018-05-15T12:23:25.461Z,22.90
2018-05-15T12:24:26.542Z,22.90
2018-05-15T12:25:27.588Z,23.00
2018-05-15T12:26:28.665Z,23.00
2018-05-15T12:27:29.740Z,23.00
2018-05-15T12:28:30.811Z,23.10
2018-05-15T12:29:31.901Z,23.10
2018-05-15T12:30:32.988Z,23.10
2018-05-15T12:31:34.083Z,23.20
2018-05-15T12:32:35.153Z,23.20
2018-05-15T12:33:36.230Z,23.20
2018-05-15T12:34:37.307Z,23.20
2018-05-15T12:35:38.374Z,23.20
2018-05-15T12:36:39.474Z,23.10
2018-05-15T12:37:40.531Z,23.00
2018-05-15T12:38:42.345Z,22.90
2018-05-15T12:39:43.418Z,22.90
2018-05-15T12:40:45.231Z,22.80
2018-05-15T12:41:46.339Z,22.80
2018-05-15T12:42:47.359Z,22.70
2018-05-15T12:43:48.423Z,22.60
2018-05-15T12:44:49.499Z,22.60
2018-05-15T12:45:50.555Z,22.60
2018-05-15T12:46:51.768Z,22.40
2018-05-15T12:47:52.800Z,22.40
2018-05-15T12:48:53.866Z,22.30
2018-05-15T12:49:54.952Z,22.30
2018-05-15T12:50:56.136Z,22.30
2018-05-15T12:51:57.268Z,22.40
2018-05-15T12:52:58.333Z,22.60
2018-05-15T12:53:59.522Z,22.70
2018-05-15T12:55:00.518Z,22.90
2018-05-15T12:56:01.586Z,23.20
2018-05-15T12:57:02.651Z,23.20
2018-05-15T12:58:03.720Z,23.30
2018-05-15T12:59:04.797Z,23.60
2018-05-15T13:00:05.893Z,23.60
2018-05-15T13:01:06.962Z,23.80
2018-05-15T13:02:08.210Z,23.90
2018-05-15T13:03:10.108Z,24.00
2018-05-15T13:04:11.177Z,24.10
2018-05-15T13:05:12.310Z,24.20
2018-05-15T13:06:13.382Z,24.20
2018-05-15T13:07:15.199Z,24.30
2018-05-15T13:08:16.271Z,24.30
2018-05-15T13:09:18.066Z,24.30
2018-05-15T13:10:19.159Z,24.30
2018-05-15T13:11:20.243Z,24.20